sensor_id;sensor_type;location;lat;lon;timestamp;temperature;humidity
32293;DHT22;43233;48.608;8.838;2023-08-06T00:00:05;15.30;67.40
32293;DHT22;43233;48.608;8.838;2023-08-06T00:02:31;15.30;67.70
32293;DHT22;43233;48.608;8.838;2023-08-06T00:04:57;15.30;68.00
32293;DHT22;43233;48.608;8.838;2023-08-06T00:07:22;15.30;68.60
32293;DHT22;43233;48.608;8.838;2023-08-06T00:09:48;15.20;68.40
32293;DHT22;43233;48.608;8.838;2023-08-06T00:12:14;15.20;68.30
32293;DHT22;43233;48.608;8.838;2023-08-06T00:14:39;15.20;68.30
32293;DHT22;43233;48.608;8.838;2023-08-06T00:17:05;15.20;68.30
32293;DHT22;43233;48.608;8.838;2023-08-06T00:19:31;15.20;68.20
32293;DHT22;43233;48.608;8.838;2023-08-06T00:21:57;15.10;68.20
32293;DHT22;43233;48.608;8.838;2023-08-06T00:24:23;15.10;69.10
32293;DHT22;43233;48.608;8.838;2023-08-06T00:26:48;15.00;68.10
32293;DHT22;43233;48.608;8.838;2023-08-06T00:29:14;15.00;68.30
32293;DHT22;43233;48.608;8.838;2023-08-06T00:31:39;15.00;68.40
32293;DHT22;43233;48.608;8.838;2023-08-06T00:34:05;14.90;68.90
32293;DHT22;43233;48.608;8.838;2023-08-06T00:36:31;14.80;69.30
32293;DHT22;43233;48.608;8.838;2023-08-06T00:38:56;14.70;69.80
32293;DHT22;43233;48.608;8.838;2023-08-06T00:41:22;14.60;69.90
32293;DHT22;43233;48.608;8.838;2023-08-06T00:43:48;14.70;70.10
32293;DHT22;43233;48.608;8.838;2023-08-06T00:46:13;14.70;69.90
32293;DHT22;43233;48.608;8.838;2023-08-06T00:48:40;14.80;69.70
32293;DHT22;43233;48.608;8.838;2023-08-06T00:51:06;14.80;69.50
32293;DHT22;43233;48.608;8.838;2023-08-06T00:53:32;14.80;69.20
32293;DHT22;43233;48.608;8.838;2023-08-06T00:55:59;14.80;69.00
32293;DHT22;43233;48.608;8.838;2023-08-06T00:58:25;14.80;68.90
32293;DHT22;43233;48.608;8.838;2023-08-06T01:00:51;14.80;68.70
32293;DHT22;43233;48.608;8.838;2023-08-06T01:03:17;14.70;68.60
32293;DHT22;43233;48.608;8.838;2023-08-06T01:05:42;14.70;68.70
32293;DHT22;43233;48.608;8.838;2023-08-06T01:11:55;14.70;69.10
32293;DHT22;43233;48.608;8.838;2023-08-06T01:14:42;14.60;68.80
32293;DHT22;43233;48.608;8.838;2023-08-06T01:17:12;14.60;68.30
32293;DHT22;43233;48.608;8.838;2023-08-06T01:19:38;14.60;68.40
32293;DHT22;43233;48.608;8.838;2023-08-06T01:22:03;14.50;68.60
32293;DHT22;43233;48.608;8.838;2023-08-06T01:24:30;14.50;68.70
32293;DHT22;43233;48.608;8.838;2023-08-06T01:27:06;14.50;69.00
32293;DHT22;43233;48.608;8.838;2023-08-06T01:29:41;14.50;68.90
32293;DHT22;43233;48.608;8.838;2023-08-06T01:32:12;14.40;68.90
32293;DHT22;43233;48.608;8.838;2023-08-06T01:34:41;14.40;68.90
32293;DHT22;43233;48.608;8.838;2023-08-06T01:37:07;14.50;69.00
32293;DHT22;43233;48.608;8.838;2023-08-06T01:39:33;14.50;68.80
32293;DHT22;43233;48.608;8.838;2023-08-06T01:41:59;14.50;68.70
32293;DHT22;43233;48.608;8.838;2023-08-06T01:44:24;14.50;68.60
32293;DHT22;43233;48.608;8.838;2023-08-06T01:46:50;14.50;68.40
32293;DHT22;43233;48.608;8.838;2023-08-06T01:49:15;14.50;68.40
32293;DHT22;43233;48.608;8.838;2023-08-06T01:51:41;14.50;68.40
32293;DHT22;43233;48.608;8.838;2023-08-06T01:54:07;14.50;68.60
32293;DHT22;43233;48.608;8.838;2023-08-06T01:56:32;14.50;69.00
32293;DHT22;43233;48.608;8.838;2023-08-06T01:58:58;14.50;69.60
32293;DHT22;43233;48.608;8.838;2023-08-06T02:01:23;14.40;70.40
32293;DHT22;43233;48.608;8.838;2023-08-06T02:03:49;14.40;71.30
32293;DHT22;43233;48.608;8.838;2023-08-06T02:06:15;14.30;72.00
32293;DHT22;43233;48.608;8.838;2023-08-06T02:08:40;14.30;72.10
32293;DHT22;43233;48.608;8.838;2023-08-06T02:11:06;14.20;72.50
32293;DHT22;43233;48.608;8.838;2023-08-06T02:13:31;14.10;73.20
32293;DHT22;43233;48.608;8.838;2023-08-06T02:15:57;14.00;73.40
32293;DHT22;43233;48.608;8.838;2023-08-06T02:18:22;14.00;73.90
32293;DHT22;43233;48.608;8.838;2023-08-06T02:20:58;13.90;74.40
32293;DHT22;43233;48.608;8.838;2023-08-06T02:23:25;13.90;75.00
32293;DHT22;43233;48.608;8.838;2023-08-06T02:26:04;13.90;76.00
32293;DHT22;43233;48.608;8.838;2023-08-06T02:28:31;13.90;75.70
32293;DHT22;43233;48.608;8.838;2023-08-06T02:30:56;13.80;75.80
32293;DHT22;43233;48.608;8.838;2023-08-06T02:33:22;13.80;75.80
32293;DHT22;43233;48.608;8.838;2023-08-06T02:35:48;13.80;75.90
32293;DHT22;43233;48.608;8.838;2023-08-06T02:38:14;13.80;75.70
32293;DHT22;43233;48.608;8.838;2023-08-06T02:40:46;13.80;75.80
32293;DHT22;43233;48.608;8.838;2023-08-06T02:43:13;13.80;75.40
32293;DHT22;43233;48.608;8.838;2023-08-06T02:45:38;13.80;75.00
32293;DHT22;43233;48.608;8.838;2023-08-06T02:48:04;13.70;74.80
32293;DHT22;43233;48.608;8.838;2023-08-06T02:50:30;13.80;74.70
32293;DHT22;43233;48.608;8.838;2023-08-06T02:52:55;13.70;74.50
32293;DHT22;43233;48.608;8.838;2023-08-06T02:55:21;13.70;74.40
32293;DHT22;43233;48.608;8.838;2023-08-06T02:57:46;13.70;74.30
32293;DHT22;43233;48.608;8.838;2023-08-06T03:00:12;13.70;74.20
32293;DHT22;43233;48.608;8.838;2023-08-06T03:02:38;13.70;74.20
32293;DHT22;43233;48.608;8.838;2023-08-06T03:05:03;13.70;74.20
32293;DHT22;43233;48.608;8.838;2023-08-06T03:07:30;13.70;74.50
32293;DHT22;43233;48.608;8.838;2023-08-06T03:09:55;13.70;74.60
32293;DHT22;43233;48.608;8.838;2023-08-06T03:12:21;13.70;74.60
32293;DHT22;43233;48.608;8.838;2023-08-06T03:14:46;13.80;74.70
32293;DHT22;43233;48.608;8.838;2023-08-06T03:17:12;13.80;74.90
32293;DHT22;43233;48.608;8.838;2023-08-06T03:19:38;13.80;75.00
32293;DHT22;43233;48.608;8.838;2023-08-06T03:22:03;13.70;75.30
32293;DHT22;43233;48.608;8.838;2023-08-06T03:24:29;13.80;75.90
32293;DHT22;43233;48.608;8.838;2023-08-06T03:26:54;13.70;76.70
32293;DHT22;43233;48.608;8.838;2023-08-06T03:29:20;13.70;77.60
32293;DHT22;43233;48.608;8.838;2023-08-06T03:31:47;13.70;77.40
32293;DHT22;43233;48.608;8.838;2023-08-06T03:34:12;13.80;77.50
32293;DHT22;43233;48.608;8.838;2023-08-06T03:36:38;13.80;77.90
32293;DHT22;43233;48.608;8.838;2023-08-06T03:39:03;13.80;77.80
32293;DHT22;43233;48.608;8.838;2023-08-06T03:41:29;13.90;77.50
32293;DHT22;43233;48.608;8.838;2023-08-06T03:43:55;14.00;77.40
32293;DHT22;43233;48.608;8.838;2023-08-06T03:46:20;13.90;77.50
32293;DHT22;43233;48.608;8.838;2023-08-06T03:48:46;14.00;77.40
32293;DHT22;43233;48.608;8.838;2023-08-06T03:51:11;14.00;77.30
32293;DHT22;43233;48.608;8.838;2023-08-06T03:53:37;13.90;77.20
32293;DHT22;43233;48.608;8.838;2023-08-06T03:56:03;13.90;77.40
32293;DHT22;43233;48.608;8.838;2023-08-06T03:58:28;13.90;77.90
32293;DHT22;43233;48.608;8.838;2023-08-06T04:01:01;13.90;78.10
32293;DHT22;43233;48.608;8.838;2023-08-06T04:03:27;13.90;78.40
32293;DHT22;43233;48.608;8.838;2023-08-06T04:05:54;13.90;78.50
32293;DHT22;43233;48.608;8.838;2023-08-06T04:08:19;13.90;78.50
32293;DHT22;43233;48.608;8.838;2023-08-06T04:10:45;13.90;77.80
32293;DHT22;43233;48.608;8.838;2023-08-06T04:13:11;13.90;77.20
32293;DHT22;43233;48.608;8.838;2023-08-06T04:15:36;13.80;77.20
32293;DHT22;43233;48.608;8.838;2023-08-06T04:18:02;13.90;77.80
32293;DHT22;43233;48.608;8.838;2023-08-06T04:20:27;13.80;77.40
32293;DHT22;43233;48.608;8.838;2023-08-06T04:22:56;13.80;78.10
32293;DHT22;43233;48.608;8.838;2023-08-06T04:25:22;13.80;78.60
32293;DHT22;43233;48.608;8.838;2023-08-06T04:27:48;13.70;77.40
32293;DHT22;43233;48.608;8.838;2023-08-06T04:30:14;13.60;78.00
32293;DHT22;43233;48.608;8.838;2023-08-06T04:32:40;13.50;78.20
32293;DHT22;43233;48.608;8.838;2023-08-06T04:35:06;13.50;78.40
32293;DHT22;43233;48.608;8.838;2023-08-06T04:37:32;13.50;78.60
32293;DHT22;43233;48.608;8.838;2023-08-06T04:39:57;13.40;79.20
32293;DHT22;43233;48.608;8.838;2023-08-06T04:42:23;13.40;79.80
32293;DHT22;43233;48.608;8.838;2023-08-06T04:44:50;13.30;80.30
32293;DHT22;43233;48.608;8.838;2023-08-06T04:47:15;13.30;80.90
32293;DHT22;43233;48.608;8.838;2023-08-06T04:49:41;13.30;80.60
32293;DHT22;43233;48.608;8.838;2023-08-06T04:52:07;13.30;81.40
32293;DHT22;43233;48.608;8.838;2023-08-06T04:54:33;13.30;81.50
32293;DHT22;43233;48.608;8.838;2023-08-06T04:56:59;13.30;81.50
32293;DHT22;43233;48.608;8.838;2023-08-06T04:59:24;13.30;81.60
32293;DHT22;43233;48.608;8.838;2023-08-06T05:01:50;13.30;81.70
32293;DHT22;43233;48.608;8.838;2023-08-06T05:04:15;13.30;81.20
32293;DHT22;43233;48.608;8.838;2023-08-06T05:06:41;13.40;81.20
32293;DHT22;43233;48.608;8.838;2023-08-06T05:09:07;13.30;81.00
32293;DHT22;43233;48.608;8.838;2023-08-06T05:11:32;13.40;80.80
32293;DHT22;43233;48.608;8.838;2023-08-06T05:13:58;13.40;79.90
32293;DHT22;43233;48.608;8.838;2023-08-06T05:16:24;13.50;78.90
32293;DHT22;43233;48.608;8.838;2023-08-06T05:18:49;13.50;78.40
32293;DHT22;43233;48.608;8.838;2023-08-06T05:21:15;13.60;78.20
32293;DHT22;43233;48.608;8.838;2023-08-06T05:23:42;13.60;78.10
32293;DHT22;43233;48.608;8.838;2023-08-06T05:26:07;13.70;78.40
32293;DHT22;43233;48.608;8.838;2023-08-06T05:28:34;13.80;78.40
32293;DHT22;43233;48.608;8.838;2023-08-06T05:31:04;13.70;78.10
32293;DHT22;43233;48.608;8.838;2023-08-06T05:33:29;13.80;78.10
32293;DHT22;43233;48.608;8.838;2023-08-06T05:35:55;13.80;78.00
32293;DHT22;43233;48.608;8.838;2023-08-06T05:38:21;13.80;78.40
32293;DHT22;43233;48.608;8.838;2023-08-06T05:40:46;13.80;77.90
32293;DHT22;43233;48.608;8.838;2023-08-06T05:43:13;13.80;77.00
32293;DHT22;43233;48.608;8.838;2023-08-06T05:45:38;13.80;76.80
32293;DHT22;43233;48.608;8.838;2023-08-06T05:48:04;13.80;77.20
32293;DHT22;43233;48.608;8.838;2023-08-06T05:50:30;13.80;77.10
32293;DHT22;43233;48.608;8.838;2023-08-06T05:52:55;13.80;77.60
32293;DHT22;43233;48.608;8.838;2023-08-06T05:55:22;13.70;78.70
32293;DHT22;43233;48.608;8.838;2023-08-06T05:57:47;13.70;79.30
32293;DHT22;43233;48.608;8.838;2023-08-06T06:00:13;13.70;79.70
32293;DHT22;43233;48.608;8.838;2023-08-06T06:02:39;13.80;79.90
32293;DHT22;43233;48.608;8.838;2023-08-06T06:05:04;13.80;80.40
32293;DHT22;43233;48.608;8.838;2023-08-06T06:07:30;13.80;80.50
32293;DHT22;43233;48.608;8.838;2023-08-06T06:09:56;13.80;80.70
32293;DHT22;43233;48.608;8.838;2023-08-06T06:12:21;13.90;80.50
32293;DHT22;43233;48.608;8.838;2023-08-06T06:14:47;13.90;81.20
32293;DHT22;43233;48.608;8.838;2023-08-06T06:17:13;13.90;79.80
32293;DHT22;43233;48.608;8.838;2023-08-06T06:19:39;13.90;80.10
32293;DHT22;43233;48.608;8.838;2023-08-06T06:22:04;13.90;79.80
32293;DHT22;43233;48.608;8.838;2023-08-06T06:24:30;14.00;80.10
32293;DHT22;43233;48.608;8.838;2023-08-06T06:26:56;13.90;80.60
32293;DHT22;43233;48.608;8.838;2023-08-06T06:29:21;14.00;81.40
32293;DHT22;43233;48.608;8.838;2023-08-06T06:31:47;13.90;81.60
32293;DHT22;43233;48.608;8.838;2023-08-06T06:34:13;14.00;82.80
32293;DHT22;43233;48.608;8.838;2023-08-06T06:36:39;13.90;81.10
32293;DHT22;43233;48.608;8.838;2023-08-06T06:39:05;13.90;81.10
32293;DHT22;43233;48.608;8.838;2023-08-06T06:41:30;13.80;82.20
32293;DHT22;43233;48.608;8.838;2023-08-06T06:43:58;13.80;82.80
32293;DHT22;43233;48.608;8.838;2023-08-06T06:46:24;13.90;83.90
32293;DHT22;43233;48.608;8.838;2023-08-06T06:48:49;13.90;83.20
32293;DHT22;43233;48.608;8.838;2023-08-06T06:51:15;14.00;82.50
32293;DHT22;43233;48.608;8.838;2023-08-06T06:53:41;13.90;83.80
32293;DHT22;43233;48.608;8.838;2023-08-06T06:56:06;13.80;84.50
32293;DHT22;43233;48.608;8.838;2023-08-06T06:58:33;13.80;85.00
32293;DHT22;43233;48.608;8.838;2023-08-06T07:00:58;13.90;84.50
32293;DHT22;43233;48.608;8.838;2023-08-06T07:03:24;13.80;83.80
32293;DHT22;43233;48.608;8.838;2023-08-06T07:05:50;13.80;83.40
32293;DHT22;43233;48.608;8.838;2023-08-06T07:08:16;13.70;84.10
32293;DHT22;43233;48.608;8.838;2023-08-06T07:10:42;13.80;84.20
32293;DHT22;43233;48.608;8.838;2023-08-06T07:13:09;13.70;83.80
32293;DHT22;43233;48.608;8.838;2023-08-06T07:15:34;13.70;84.10
32293;DHT22;43233;48.608;8.838;2023-08-06T07:18:00;13.80;84.00
32293;DHT22;43233;48.608;8.838;2023-08-06T07:20:26;13.70;84.70
32293;DHT22;43233;48.608;8.838;2023-08-06T07:22:54;13.70;84.80
32293;DHT22;43233;48.608;8.838;2023-08-06T07:25:20;13.60;84.50
32293;DHT22;43233;48.608;8.838;2023-08-06T07:27:45;13.70;86.10
32293;DHT22;43233;48.608;8.838;2023-08-06T07:30:11;13.60;86.50
32293;DHT22;43233;48.608;8.838;2023-08-06T07:32:37;13.70;84.50
32293;DHT22;43233;48.608;8.838;2023-08-06T07:35:03;13.60;83.70
32293;DHT22;43233;48.608;8.838;2023-08-06T07:37:28;13.60;86.10
32293;DHT22;43233;48.608;8.838;2023-08-06T07:39:55;13.50;87.10
32293;DHT22;43233;48.608;8.838;2023-08-06T07:42:21;13.60;87.60
32293;DHT22;43233;48.608;8.838;2023-08-06T07:44:55;13.60;88.20
32293;DHT22;43233;48.608;8.838;2023-08-06T07:47:21;13.60;87.50
32293;DHT22;43233;48.608;8.838;2023-08-06T07:49:46;13.60;87.70
32293;DHT22;43233;48.608;8.838;2023-08-06T07:52:12;13.60;87.20
32293;DHT22;43233;48.608;8.838;2023-08-06T07:54:38;13.70;87.00
32293;DHT22;43233;48.608;8.838;2023-08-06T07:57:03;13.70;87.00
32293;DHT22;43233;48.608;8.838;2023-08-06T07:59:29;13.70;86.40
32293;DHT22;43233;48.608;8.838;2023-08-06T08:01:55;13.70;85.80
32293;DHT22;43233;48.608;8.838;2023-08-06T08:04:20;13.60;86.80
32293;DHT22;43233;48.608;8.838;2023-08-06T08:06:46;13.60;87.80
32293;DHT22;43233;48.608;8.838;2023-08-06T08:09:13;13.50;87.20
32293;DHT22;43233;48.608;8.838;2023-08-06T08:11:39;13.50;88.00
32293;DHT22;43233;48.608;8.838;2023-08-06T08:14:05;13.60;88.50
32293;DHT22;43233;48.608;8.838;2023-08-06T08:16:31;13.60;88.30
32293;DHT22;43233;48.608;8.838;2023-08-06T08:18:57;13.70;88.70
32293;DHT22;43233;48.608;8.838;2023-08-06T08:21:22;13.70;88.60
32293;DHT22;43233;48.608;8.838;2023-08-06T08:23:50;13.80;88.90
32293;DHT22;43233;48.608;8.838;2023-08-06T08:26:15;13.80;89.20
32293;DHT22;43233;48.608;8.838;2023-08-06T08:28:41;13.80;87.70
32293;DHT22;43233;48.608;8.838;2023-08-06T08:31:10;13.80;89.00
32293;DHT22;43233;48.608;8.838;2023-08-06T08:33:39;13.80;89.20
32293;DHT22;43233;48.608;8.838;2023-08-06T08:36:04;13.80;89.30
32293;DHT22;43233;48.608;8.838;2023-08-06T08:38:30;13.80;87.00
32293;DHT22;43233;48.608;8.838;2023-08-06T08:40:56;13.80;87.10
32293;DHT22;43233;48.608;8.838;2023-08-06T08:43:22;13.90;87.90
32293;DHT22;43233;48.608;8.838;2023-08-06T08:45:51;13.90;87.00
32293;DHT22;43233;48.608;8.838;2023-08-06T08:48:18;13.90;87.20
32293;DHT22;43233;48.608;8.838;2023-08-06T08:50:49;13.90;87.10
32293;DHT22;43233;48.608;8.838;2023-08-06T08:53:15;14.00;88.50
32293;DHT22;43233;48.608;8.838;2023-08-06T08:55:43;13.90;88.30
32293;DHT22;43233;48.608;8.838;2023-08-06T08:58:08;13.90;88.50
32293;DHT22;43233;48.608;8.838;2023-08-06T09:00:35;13.90;89.80
32293;DHT22;43233;48.608;8.838;2023-08-06T09:03:02;14.00;89.80
32293;DHT22;43233;48.608;8.838;2023-08-06T09:05:32;14.00;90.60
32293;DHT22;43233;48.608;8.838;2023-08-06T09:08:02;14.10;89.60
32293;DHT22;43233;48.608;8.838;2023-08-06T09:10:28;14.10;89.20
32293;DHT22;43233;48.608;8.838;2023-08-06T09:12:55;14.10;90.10
32293;DHT22;43233;48.608;8.838;2023-08-06T09:15:24;14.10;92.30
32293;DHT22;43233;48.608;8.838;2023-08-06T09:17:51;14.30;90.40
32293;DHT22;43233;48.608;8.838;2023-08-06T09:20:17;14.30;87.50
32293;DHT22;43233;48.608;8.838;2023-08-06T09:22:43;14.30;87.30
32293;DHT22;43233;48.608;8.838;2023-08-06T09:25:09;14.30;86.70
32293;DHT22;43233;48.608;8.838;2023-08-06T09:27:38;14.20;87.90
32293;DHT22;43233;48.608;8.838;2023-08-06T09:30:05;14.10;87.70
32293;DHT22;43233;48.608;8.838;2023-08-06T09:32:48;14.10;87.90
32293;DHT22;43233;48.608;8.838;2023-08-06T09:35:17;14.20;87.80
32293;DHT22;43233;48.608;8.838;2023-08-06T09:37:43;14.10;87.30
32293;DHT22;43233;48.608;8.838;2023-08-06T09:40:29;14.10;87.00
32293;DHT22;43233;48.608;8.838;2023-08-06T09:42:56;14.10;86.20
32293;DHT22;43233;48.608;8.838;2023-08-06T09:45:22;14.10;87.80
32293;DHT22;43233;48.608;8.838;2023-08-06T09:47:55;14.10;87.00
32293;DHT22;43233;48.608;8.838;2023-08-06T09:50:22;14.10;85.80
32293;DHT22;43233;48.608;8.838;2023-08-06T09:52:48;14.00;86.50
32293;DHT22;43233;48.608;8.838;2023-08-06T09:55:15;14.00;86.70
32293;DHT22;43233;48.608;8.838;2023-08-06T09:57:41;14.00;87.10
32293;DHT22;43233;48.608;8.838;2023-08-06T10:00:11;14.00;87.80
32293;DHT22;43233;48.608;8.838;2023-08-06T10:02:40;14.00;88.20
32293;DHT22;43233;48.608;8.838;2023-08-06T10:05:07;14.00;88.80
32293;DHT22;43233;48.608;8.838;2023-08-06T10:07:34;14.00;89.00
32293;DHT22;43233;48.608;8.838;2023-08-06T10:09:59;14.00;88.80
32293;DHT22;43233;48.608;8.838;2023-08-06T10:12:28;14.00;89.00
32293;DHT22;43233;48.608;8.838;2023-08-06T10:14:57;13.90;89.70
32293;DHT22;43233;48.608;8.838;2023-08-06T10:17:24;13.90;88.00
32293;DHT22;43233;48.608;8.838;2023-08-06T10:19:51;13.90;88.00
32293;DHT22;43233;48.608;8.838;2023-08-06T10:22:20;13.90;88.20
32293;DHT22;43233;48.608;8.838;2023-08-06T10:24:54;13.90;89.60
32293;DHT22;43233;48.608;8.838;2023-08-06T10:29:47;13.80;91.50
32293;DHT22;43233;48.608;8.838;2023-08-06T10:32:13;13.80;90.30
32293;DHT22;43233;48.608;8.838;2023-08-06T10:34:58;13.80;90.50
32293;DHT22;43233;48.608;8.838;2023-08-06T10:37:35;13.80;91.70
32293;DHT22;43233;48.608;8.838;2023-08-06T10:40:02;13.90;90.70
32293;DHT22;43233;48.608;8.838;2023-08-06T10:42:29;13.90;91.70
32293;DHT22;43233;48.608;8.838;2023-08-06T10:45:16;14.00;90.60
32293;DHT22;43233;48.608;8.838;2023-08-06T10:47:43;13.90;91.70
32293;DHT22;43233;48.608;8.838;2023-08-06T10:50:12;13.90;92.40
32293;DHT22;43233;48.608;8.838;2023-08-06T10:52:39;14.00;92.90
32293;DHT22;43233;48.608;8.838;2023-08-06T10:55:05;14.10;91.90
32293;DHT22;43233;48.608;8.838;2023-08-06T10:57:31;14.10;89.00
32293;DHT22;43233;48.608;8.838;2023-08-06T10:59:57;14.10;91.20
32293;DHT22;43233;48.608;8.838;2023-08-06T11:02:23;14.10;90.20
32293;DHT22;43233;48.608;8.838;2023-08-06T11:04:48;14.00;88.90
32293;DHT22;43233;48.608;8.838;2023-08-06T11:07:14;14.10;91.00
32293;DHT22;43233;48.608;8.838;2023-08-06T11:09:40;14.00;88.10
32293;DHT22;43233;48.608;8.838;2023-08-06T11:12:18;14.00;90.10
32293;DHT22;43233;48.608;8.838;2023-08-06T11:14:50;14.10;91.10
32293;DHT22;43233;48.608;8.838;2023-08-06T11:17:16;14.10;89.70
32293;DHT22;43233;48.608;8.838;2023-08-06T11:19:41;14.00;90.20
32293;DHT22;43233;48.608;8.838;2023-08-06T11:22:07;14.00;90.00
32293;DHT22;43233;48.608;8.838;2023-08-06T11:24:32;14.00;88.80
32293;DHT22;43233;48.608;8.838;2023-08-06T11:26:59;14.00;89.10
32293;DHT22;43233;48.608;8.838;2023-08-06T11:29:25;13.90;90.80
32293;DHT22;43233;48.608;8.838;2023-08-06T11:31:51;13.90;90.20
32293;DHT22;43233;48.608;8.838;2023-08-06T11:34:17;14.00;91.70
32293;DHT22;43233;48.608;8.838;2023-08-06T11:36:43;14.00;89.20
32293;DHT22;43233;48.608;8.838;2023-08-06T11:39:09;14.00;88.00
32293;DHT22;43233;48.608;8.838;2023-08-06T11:41:36;14.10;87.90
32293;DHT22;43233;48.608;8.838;2023-08-06T11:44:03;14.10;85.70
32293;DHT22;43233;48.608;8.838;2023-08-06T11:46:29;14.00;84.20
32293;DHT22;43233;48.608;8.838;2023-08-06T11:49:14;14.10;84.70
32293;DHT22;43233;48.608;8.838;2023-08-06T11:51:40;14.10;86.90
32293;DHT22;43233;48.608;8.838;2023-08-06T11:54:06;14.20;85.20
32293;DHT22;43233;48.608;8.838;2023-08-06T11:56:32;14.20;85.40
32293;DHT22;43233;48.608;8.838;2023-08-06T11:58:58;14.10;86.70
32293;DHT22;43233;48.608;8.838;2023-08-06T12:01:25;14.10;84.30
32293;DHT22;43233;48.608;8.838;2023-08-06T12:03:51;13.90;86.20
32293;DHT22;43233;48.608;8.838;2023-08-06T12:06:16;13.90;87.10
32293;DHT22;43233;48.608;8.838;2023-08-06T12:08:42;13.80;86.60
32293;DHT22;43233;48.608;8.838;2023-08-06T12:11:07;13.80;85.80
32293;DHT22;43233;48.608;8.838;2023-08-06T12:13:34;13.90;84.50
32293;DHT22;43233;48.608;8.838;2023-08-06T12:15:59;13.90;83.30
32293;DHT22;43233;48.608;8.838;2023-08-06T12:18:25;13.70;81.50
32293;DHT22;43233;48.608;8.838;2023-08-06T12:20:51;13.60;82.50
32293;DHT22;43233;48.608;8.838;2023-08-06T12:23:17;13.60;83.20
32293;DHT22;43233;48.608;8.838;2023-08-06T12:25:43;13.60;85.20
32293;DHT22;43233;48.608;8.838;2023-08-06T12:28:10;13.60;82.70
32293;DHT22;43233;48.608;8.838;2023-08-06T12:30:36;13.50;84.00
32293;DHT22;43233;48.608;8.838;2023-08-06T12:33:01;13.50;85.50
32293;DHT22;43233;48.608;8.838;2023-08-06T12:35:27;13.50;85.10
32293;DHT22;43233;48.608;8.838;2023-08-06T12:37:53;13.50;85.30
32293;DHT22;43233;48.608;8.838;2023-08-06T12:40:20;13.50;84.10
32293;DHT22;43233;48.608;8.838;2023-08-06T12:42:46;13.50;85.90
32293;DHT22;43233;48.608;8.838;2023-08-06T12:45:12;13.50;85.30
32293;DHT22;43233;48.608;8.838;2023-08-06T12:47:38;13.60;84.70
32293;DHT22;43233;48.608;8.838;2023-08-06T12:50:04;13.50;83.40
32293;DHT22;43233;48.608;8.838;2023-08-06T12:52:29;13.50;83.70
32293;DHT22;43233;48.608;8.838;2023-08-06T12:54:55;13.60;83.40
32293;DHT22;43233;48.608;8.838;2023-08-06T12:57:21;13.70;83.20
32293;DHT22;43233;48.608;8.838;2023-08-06T12:59:46;13.90;83.20
32293;DHT22;43233;48.608;8.838;2023-08-06T13:02:13;14.10;80.40
32293;DHT22;43233;48.608;8.838;2023-08-06T13:04:39;14.20;80.50
32293;DHT22;43233;48.608;8.838;2023-08-06T13:07:05;14.20;76.60
32293;DHT22;43233;48.608;8.838;2023-08-06T13:09:32;14.30;76.10
32293;DHT22;43233;48.608;8.838;2023-08-06T13:11:58;14.40;77.70
32293;DHT22;43233;48.608;8.838;2023-08-06T13:14:25;14.50;73.80
32293;DHT22;43233;48.608;8.838;2023-08-06T13:16:51;14.50;74.10
32293;DHT22;43233;48.608;8.838;2023-08-06T13:19:17;14.50;73.80
32293;DHT22;43233;48.608;8.838;2023-08-06T13:24:17;14.30;77.30
32293;DHT22;43233;48.608;8.838;2023-08-06T13:26:42;14.40;77.70
32293;DHT22;43233;48.608;8.838;2023-08-06T13:29:08;14.40;76.00
32293;DHT22;43233;48.608;8.838;2023-08-06T13:31:34;14.40;73.60
32293;DHT22;43233;48.608;8.838;2023-08-06T13:33:59;14.30;76.10
32293;DHT22;43233;48.608;8.838;2023-08-06T13:36:28;14.30;76.60
32293;DHT22;43233;48.608;8.838;2023-08-06T13:38:54;14.30;75.20
32293;DHT22;43233;48.608;8.838;2023-08-06T13:41:20;14.30;74.30
32293;DHT22;43233;48.608;8.838;2023-08-06T13:43:46;14.30;75.70
32293;DHT22;43233;48.608;8.838;2023-08-06T13:46:12;14.40;75.00
32293;DHT22;43233;48.608;8.838;2023-08-06T13:48:41;14.60;74.20
32293;DHT22;43233;48.608;8.838;2023-08-06T13:51:07;14.90;73.80
32293;DHT22;43233;48.608;8.838;2023-08-06T13:53:32;15.20;73.70
32293;DHT22;43233;48.608;8.838;2023-08-06T13:55:58;15.50;69.30
32293;DHT22;43233;48.608;8.838;2023-08-06T13:58:24;15.80;69.00
32293;DHT22;43233;48.608;8.838;2023-08-06T14:00:51;15.70;65.60
32293;DHT22;43233;48.608;8.838;2023-08-06T14:03:18;15.50;66.70
32293;DHT22;43233;48.608;8.838;2023-08-06T14:05:44;15.50;65.50
32293;DHT22;43233;48.608;8.838;2023-08-06T14:08:10;15.40;65.90
32293;DHT22;43233;48.608;8.838;2023-08-06T14:10:35;15.20;64.60
32293;DHT22;43233;48.608;8.838;2023-08-06T14:13:01;15.00;66.50
32293;DHT22;43233;48.608;8.838;2023-08-06T14:15:27;14.90;67.60
32293;DHT22;43233;48.608;8.838;2023-08-06T14:17:52;14.80;67.40
32293;DHT22;43233;48.608;8.838;2023-08-06T14:20:18;14.70;71.20
32293;DHT22;43233;48.608;8.838;2023-08-06T14:22:44;14.70;72.10
32293;DHT22;43233;48.608;8.838;2023-08-06T14:25:09;14.60;71.80
32293;DHT22;43233;48.608;8.838;2023-08-06T14:27:35;14.50;76.00
32293;DHT22;43233;48.608;8.838;2023-08-06T14:30:01;14.50;77.20
32293;DHT22;43233;48.608;8.838;2023-08-06T14:32:28;14.30;78.80
32293;DHT22;43233;48.608;8.838;2023-08-06T14:34:54;14.30;77.10
32293;DHT22;43233;48.608;8.838;2023-08-06T14:37:20;14.20;75.20
32293;DHT22;43233;48.608;8.838;2023-08-06T14:39:45;14.30;78.10
32293;DHT22;43233;48.608;8.838;2023-08-06T14:42:11;14.60;76.20
32293;DHT22;43233;48.608;8.838;2023-08-06T14:44:37;14.70;73.80
32293;DHT22;43233;48.608;8.838;2023-08-06T14:47:03;14.80;70.10
32293;DHT22;43233;48.608;8.838;2023-08-06T14:49:28;14.60;70.80
32293;DHT22;43233;48.608;8.838;2023-08-06T14:51:54;14.60;70.10
32293;DHT22;43233;48.608;8.838;2023-08-06T14:54:20;14.50;71.50
32293;DHT22;43233;48.608;8.838;2023-08-06T14:56:45;14.40;72.20
32293;DHT22;43233;48.608;8.838;2023-08-06T14:59:11;14.40;71.00
32293;DHT22;43233;48.608;8.838;2023-08-06T15:01:37;14.30;72.70
32293;DHT22;43233;48.608;8.838;2023-08-06T15:04:03;14.20;74.20
32293;DHT22;43233;48.608;8.838;2023-08-06T15:06:28;14.10;74.50
32293;DHT22;43233;48.608;8.838;2023-08-06T15:08:54;14.10;72.70
32293;DHT22;43233;48.608;8.838;2023-08-06T15:11:23;14.10;72.40
32293;DHT22;43233;48.608;8.838;2023-08-06T15:13:49;14.10;72.00
32293;DHT22;43233;48.608;8.838;2023-08-06T15:16:14;14.10;72.10
32293;DHT22;43233;48.608;8.838;2023-08-06T15:18:40;14.20;71.40
32293;DHT22;43233;48.608;8.838;2023-08-06T15:21:07;14.20;71.00
32293;DHT22;43233;48.608;8.838;2023-08-06T15:23:33;14.20;69.20
32293;DHT22;43233;48.608;8.838;2023-08-06T15:25:58;14.30;71.40
32293;DHT22;43233;48.608;8.838;2023-08-06T15:28:24;14.50;70.40
32293;DHT22;43233;48.608;8.838;2023-08-06T15:30:50;14.70;69.40
32293;DHT22;43233;48.608;8.838;2023-08-06T15:33:17;14.80;67.10